sensor_id;sensor_type;location;lat;lon;timestamp;pressure;altitude;pressure_sealevel;temperature;humidity
57801;BME280;43627;42.728;23.256;2022-11-02T00:01:20;95649.75;;;10.49;100.00
57801;BME280;43627;42.728;23.256;2022-11-02T00:03:48;95645.97;;;10.46;100.00
57801;BME280;43627;42.728;23.256;2022-11-02T00:06:15;95646.28;;;10.48;100.00
57801;BME280;43627;42.728;23.256;2022-11-02T00:08:41;95650.81;;;10.51;100.00
57801;BME280;43627;42.728;23.256;2022-11-02T00:11:08;95634.16;;;10.49;100.00
57801;BME280;43627;42.728;23.256;2022-11-02T00:13:35;95626.06;;;10.37;100.00
57801;BME280;43627;42.728;23.256;2022-11-02T00:16:07;95635.94;;;10.43;100.00
57801;BME280;43627;42.728;23.256;2022-11-02T00:18:37;95642.34;;;10.49;100.00
57801;BME280;43627;42.728;23.256;2022-11-02T00:21:04;95632.47;;;10.43;100.00
57801;BME280;43627;42.728;23.256;2022-11-02T00:23:31;95644.97;;;10.53;100.00
57801;BME280;43627;42.728;23.256;2022-11-02T00:26:00;95635.69;;;10.50;100.00
57801;BME280;43627;42.728;23.256;2022-11-02T00:28:29;95637.66;;;10.50;100.00
57801;BME280;43627;42.728;23.256;2022-11-02T00:30:56;95633.22;;;10.43;100.00
57801;BME280;43627;42.728;23.256;2022-11-02T00:33:23;95637.03;;;10.46;100.00
57801;BME280;43627;42.728;23.256;2022-11-02T00:35:49;95630.50;;;10.43;100.00
57801;BME280;43627;42.728;23.256;2022-11-02T00:38:16;95631.81;;;10.39;100.00
57801;BME280;43627;42.728;23.256;2022-11-02T00:40:43;95636.97;;;10.37;100.00
57801;BME280;43627;42.728;23.256;2022-11-02T00:43:09;95612.59;;;10.20;100.00
57801;BME280;43627;42.728;23.256;2022-11-02T00:45:36;95644.06;;;10.34;100.00
57801;BME280;43627;42.728;23.256;2022-11-02T00:48:03;95641.00;;;10.32;100.00
57801;BME280;43627;42.728;23.256;2022-11-02T00:50:31;95627.66;;;10.25;100.00
57801;BME280;43627;42.728;23.256;2022-11-02T00:52:57;95635.47;;;10.23;100.00
57801;BME280;43627;42.728;23.256;2022-11-02T00:55:24;95641.19;;;10.16;100.00
57801;BME280;43627;42.728;23.256;2022-11-02T00:57:51;95633.78;;;10.03;100.00
57801;BME280;43627;42.728;23.256;2022-11-02T01:00:19;95641.97;;;10.03;100.00
57801;BME280;43627;42.728;23.256;2022-11-02T01:02:46;95644.19;;;9.96;100.00
57801;BME280;43627;42.728;23.256;2022-11-02T01:05:14;95639.59;;;9.93;100.00
57801;BME280;43627;42.728;23.256;2022-11-02T01:07:40;95638.00;;;9.83;100.00
57801;BME280;43627;42.728;23.256;2022-11-02T01:10:08;95641.75;;;9.63;100.00
57801;BME280;43627;42.728;23.256;2022-11-02T01:12:37;95648.28;;;9.66;100.00
57801;BME280;43627;42.728;23.256;2022-11-02T01:15:06;95641.66;;;9.54;100.00
57801;BME280;43627;42.728;23.256;2022-11-02T01:17:33;95631.69;;;9.38;100.00
57801;BME280;43627;42.728;23.256;2022-11-02T01:20:00;95630.03;;;9.41;100.00
57801;BME280;43627;42.728;23.256;2022-11-02T01:22:27;95629.72;;;9.39;100.00
57801;BME280;43627;42.728;23.256;2022-11-02T01:24:54;95626.44;;;9.19;100.00
57801;BME280;43627;42.728;23.256;2022-11-02T01:27:20;95619.72;;;9.23;100.00
57801;BME280;43627;42.728;23.256;2022-11-02T01:29:47;95631.16;;;9.31;100.00
57801;BME280;43627;42.728;23.256;2022-11-02T01:32:14;95629.94;;;9.32;100.00
57801;BME280;43627;42.728;23.256;2022-11-02T01:34:41;95625.69;;;9.31;100.00
57801;BME280;43627;42.728;23.256;2022-11-02T01:37:08;95622.13;;;9.21;100.00
57801;BME280;43627;42.728;23.256;2022-11-02T01:39:35;95621.03;;;9.31;100.00
57801;BME280;43627;42.728;23.256;2022-11-02T01:42:02;95609.91;;;9.26;100.00
57801;BME280;43627;42.728;23.256;2022-11-02T01:44:31;95618.41;;;9.40;100.00
57801;BME280;43627;42.728;23.256;2022-11-02T01:47:07;95592.06;;;9.25;100.00
57801;BME280;43627;42.728;23.256;2022-11-02T01:49:41;95613.72;;;9.41;100.00
57801;BME280;43627;42.728;23.256;2022-11-02T01:52:12;95608.50;;;9.34;100.00
57801;BME280;43627;42.728;23.256;2022-11-02T01:54:50;95611.69;;;9.20;100.00
57801;BME280;43627;42.728;23.256;2022-11-02T01:57:19;95611.22;;;9.08;100.00
57801;BME280;43627;42.728;23.256;2022-11-02T02:00:02;95612.53;;;9.04;100.00
57801;BME280;43627;42.728;23.256;2022-11-02T02:02:29;95602.75;;;8.94;100.00
57801;BME280;43627;42.728;23.256;2022-11-02T02:05:02;95604.28;;;8.95;100.00
57801;BME280;43627;42.728;23.256;2022-11-02T02:07:30;95601.78;;;8.87;100.00
57801;BME280;43627;42.728;23.256;2022-11-02T02:09:59;95610.69;;;8.88;100.00
57801;BME280;43627;42.728;23.256;2022-11-02T02:12:26;95608.97;;;8.81;100.00
57801;BME280;43627;42.728;23.256;2022-11-02T02:14:54;95608.72;;;8.76;100.00
57801;BME280;43627;42.728;23.256;2022-11-02T02:20:17;95604.25;;;8.69;100.00
57801;BME280;43627;42.728;23.256;2022-11-02T02:29:02;95602.59;;;8.46;100.00
57801;BME280;43627;42.728;23.256;2022-11-02T02:34:35;95610.75;;;8.17;100.00
57801;BME280;43627;42.728;23.256;2022-11-02T02:37:06;95607.72;;;8.15;100.00
57801;BME280;43627;42.728;23.256;2022-11-02T02:39:50;95601.63;;;8.11;100.00
57801;BME280;43627;42.728;23.256;2022-11-02T02:42:24;95610.19;;;8.10;100.00
57801;BME280;43627;42.728;23.256;2022-11-02T02:45:23;95605.78;;;8.16;100.00
57801;BME280;43627;42.728;23.256;2022-11-02T02:48:14;95618.22;;;8.13;100.00
57801;BME280;43627;42.728;23.256;2022-11-02T02:50:49;95605.22;;;8.21;100.00
57801;BME280;43627;42.728;23.256;2022-11-02T02:53:19;95606.41;;;8.20;100.00
57801;BME280;43627;42.728;23.256;2022-11-02T02:55:48;95601.63;;;8.24;100.00
57801;BME280;43627;42.728;23.256;2022-11-02T02:58:24;95609.13;;;8.20;100.00
57801;BME280;43627;42.728;23.256;2022-11-02T03:00:53;95607.47;;;8.10;100.00
57801;BME280;43627;42.728;23.256;2022-11-02T03:03:24;95617.78;;;8.15;100.00
57801;BME280;43627;42.728;23.256;2022-11-02T03:08:38;95609.00;;;7.82;100.00
57801;BME280;43627;42.728;23.256;2022-11-02T03:16:47;95613.97;;;7.99;100.00
57801;BME280;43627;42.728;23.256;2022-11-02T03:19:23;95610.72;;;8.05;100.00
57801;BME280;43627;42.728;23.256;2022-11-02T03:22:00;95604.50;;;8.04;100.00
57801;BME280;43627;42.728;23.256;2022-11-02T03:24:36;95609.28;;;8.00;100.00
57801;BME280;43627;42.728;23.256;2022-11-02T03:27:17;95609.94;;;8.04;100.00
57801;BME280;43627;42.728;23.256;2022-11-02T03:30:04;95606.81;;;8.06;100.00
57801;BME280;43627;42.728;23.256;2022-11-02T03:32:54;95613.78;;;8.07;100.00
57801;BME280;43627;42.728;23.256;2022-11-02T03:35:39;95609.31;;;8.13;100.00
57801;BME280;43627;42.728;23.256;2022-11-02T03:40:41;95601.94;;;8.13;100.00
57801;BME280;43627;42.728;23.256;2022-11-02T03:43:10;95606.19;;;8.14;100.00
57801;BME280;43627;42.728;23.256;2022-11-02T03:45:41;95610.09;;;8.13;100.00
57801;BME280;43627;42.728;23.256;2022-11-02T03:48:10;95607.47;;;8.10;100.00
57801;BME280;43627;42.728;23.256;2022-11-02T03:50:42;95607.47;;;8.10;100.00
57801;BME280;43627;42.728;23.256;2022-11-02T03:53:16;95608.84;;;8.01;100.00
57801;BME280;43627;42.728;23.256;2022-11-02T03:55:48;95602.91;;;8.07;100.00
57801;BME280;43627;42.728;23.256;2022-11-02T03:58:17;95609.19;;;8.03;100.00
57801;BME280;43627;42.728;23.256;2022-11-02T04:00:47;95595.72;;;8.00;100.00
57801;BME280;43627;42.728;23.256;2022-11-02T04:03:17;95606.16;;;8.01;100.00
57801;BME280;43627;42.728;23.256;2022-11-02T04:05:44;95610.78;;;7.88;100.00
57801;BME280;43627;42.728;23.256;2022-11-02T04:08:14;95607.69;;;7.86;100.00
57801;BME280;43627;42.728;23.256;2022-11-02T04:10:50;95616.38;;;7.81;100.00
57801;BME280;43627;42.728;23.256;2022-11-02T04:13:36;95603.41;;;7.72;100.00
57801;BME280;43627;42.728;23.256;2022-11-02T04:16:21;95606.91;;;7.73;100.00
57801;BME280;43627;42.728;23.256;2022-11-02T04:18:53;95607.44;;;7.68;100.00
57801;BME280;43627;42.728;23.256;2022-11-02T04:21:38;95606.41;;;7.62;100.00
57801;BME280;43627;42.728;23.256;2022-11-02T04:24:05;95604.56;;;7.59;100.00
57801;BME280;43627;42.728;23.256;2022-11-02T04:26:50;95608.44;;;7.58;100.00
57801;BME280;43627;42.728;23.256;2022-11-02T04:29:17;95599.38;;;7.48;100.00
57801;BME280;43627;42.728;23.256;2022-11-02T04:31:44;95607.34;;;7.55;100.00
57801;BME280;43627;42.728;23.256;2022-11-02T04:34:10;95602.00;;;7.52;100.00
57801;BME280;43627;42.728;23.256;2022-11-02T04:36:37;95595.72;;;7.55;100.00
57801;BME280;43627;42.728;23.256;2022-11-02T04:39:03;95603.88;;;7.55;100.00
57801;BME280;43627;42.728;23.256;2022-11-02T04:41:30;95609.88;;;7.62;100.00
57801;BME280;43627;42.728;23.256;2022-11-02T04:44:10;95612.16;;;7.64;100.00
57801;BME280;43627;42.728;23.256;2022-11-02T04:46:37;95607.06;;;7.66;100.00
57801;BME280;43627;42.728;23.256;2022-11-02T04:49:06;95597.19;;;7.59;100.00
57801;BME280;43627;42.728;23.256;2022-11-02T04:51:33;95606.91;;;7.57;100.00
57801;BME280;43627;42.728;23.256;2022-11-02T04:54:01;95607.75;;;7.70;100.00
57801;BME280;43627;42.728;23.256;2022-11-02T04:56:28;95610.97;;;7.65;100.00
57801;BME280;43627;42.728;23.256;2022-11-02T04:58:57;95606.06;;;7.60;100.00
57801;BME280;43627;42.728;23.256;2022-11-02T05:01:27;95607.50;;;7.64;100.00
57801;BME280;43627;42.728;23.256;2022-11-02T05:03:54;95608.03;;;7.59;100.00
57801;BME280;43627;42.728;23.256;2022-11-02T05:06:23;95611.69;;;7.53;100.00
57801;BME280;43627;42.728;23.256;2022-11-02T05:08:50;95614.97;;;7.60;100.00
57801;BME280;43627;42.728;23.256;2022-11-02T05:11:17;95613.84;;;7.58;100.00
57801;BME280;43627;42.728;23.256;2022-11-02T05:13:44;95612.69;;;7.59;100.00
57801;BME280;43627;42.728;23.256;2022-11-02T05:16:14;95621.16;;;7.77;100.00
57801;BME280;43627;42.728;23.256;2022-11-02T05:18:41;95622.81;;;7.87;100.00
57801;BME280;43627;42.728;23.256;2022-11-02T05:21:09;95615.66;;;7.93;100.00
57801;BME280;43627;42.728;23.256;2022-11-02T05:23:36;95637.47;;;8.06;100.00
57801;BME280;43627;42.728;23.256;2022-11-02T05:26:09;95638.78;;;8.14;100.00
57801;BME280;43627;42.728;23.256;2022-11-02T05:28:36;95634.88;;;8.15;100.00
57801;BME280;43627;42.728;23.256;2022-11-02T05:31:04;95640.34;;;8.28;100.00
57801;BME280;43627;42.728;23.256;2022-11-02T05:33:31;95640.53;;;8.37;100.00
57801;BME280;43627;42.728;23.256;2022-11-02T05:35:58;95640.78;;;8.55;100.00
57801;BME280;43627;42.728;23.256;2022-11-02T05:38:26;95648.97;;;8.81;100.00
57801;BME280;43627;42.728;23.256;2022-11-02T05:40:57;95650.63;;;9.16;100.00
57801;BME280;43627;42.728;23.256;2022-11-02T05:43:25;95647.28;;;9.72;100.00
57801;BME280;43627;42.728;23.256;2022-11-02T05:45:57;95656.56;;;10.10;100.00
57801;BME280;43627;42.728;23.256;2022-11-02T05:48:26;95664.41;;;10.64;100.00
57801;BME280;43627;42.728;23.256;2022-11-02T05:50:57;95653.22;;;10.93;100.00
57801;BME280;43627;42.728;23.256;2022-11-02T05:53:25;95669.06;;;11.48;97.60
57801;BME280;43627;42.728;23.256;2022-11-02T05:55:56;95678.09;;;11.35;92.41
57801;BME280;43627;42.728;23.256;2022-11-02T05:58:24;95678.03;;;11.17;95.30
57801;BME280;43627;42.728;23.256;2022-11-02T06:00:51;95677.88;;;11.11;97.36
57801;BME280;43627;42.728;23.256;2022-11-02T06:03:17;95672.28;;;11.64;97.09
57801;BME280;43627;42.728;23.256;2022-11-02T06:05:44;95671.03;;;12.06;90.92
57801;BME280;43627;42.728;23.256;2022-11-02T06:08:10;95676.06;;;12.44;84.88
57801;BME280;43627;42.728;23.256;2022-11-02T06:10:37;95677.38;;;12.85;79.00
57801;BME280;43627;42.728;23.256;2022-11-02T06:13:08;95674.38;;;12.65;78.70
57801;BME280;43627;42.728;23.256;2022-11-02T06:15:35;95667.81;;;12.71;79.81
57801;BME280;43627;42.728;23.256;2022-11-02T06:18:02;95682.88;;;12.21;79.69
57801;BME280;43627;42.728;23.256;2022-11-02T06:20:28;95686.94;;;11.89;83.29
57801;BME280;43627;42.728;23.256;2022-11-02T06:22:55;95682.44;;;12.22;80.19
57801;BME280;43627;42.728;23.256;2022-11-02T06:25:22;95655.50;;;11.93;77.04
57801;BME280;43627;42.728;23.256;2022-11-02T06:27:52;95682.13;;;12.20;76.46
57801;BME280;43627;42.728;23.256;2022-11-02T06:30:24;95683.31;;;12.10;75.91
57801;BME280;43627;42.728;23.256;2022-11-02T06:32:52;95673.00;;;12.05;77.34
57801;BME280;43627;42.728;23.256;2022-11-02T06:35:21;95677.81;;;11.83;79.78
57801;BME280;43627;42.728;23.256;2022-11-02T06:37:47;95694.69;;;11.90;79.00
57801;BME280;43627;42.728;23.256;2022-11-02T06:40:14;95694.69;;;11.90;81.06
57801;BME280;43627;42.728;23.256;2022-11-02T06:42:41;95695.19;;;11.58;84.25
57801;BME280;43627;42.728;23.256;2022-11-02T06:45:28;95696.13;;;11.73;85.46
57801;BME280;43627;42.728;23.256;2022-11-02T06:47:54;95671.81;;;11.57;86.08
57801;BME280;43627;42.728;23.256;2022-11-02T06:50:21;95691.34;;;11.46;89.94
57801;BME280;43627;42.728;23.256;2022-11-02T06:52:50;95695.19;;;11.58;87.21
57801;BME280;43627;42.728;23.256;2022-11-02T06:55:17;95688.50;;;11.59;87.91
57801;BME280;43627;42.728;23.256;2022-11-02T06:57:44;95692.13;;;11.47;89.79
57801;BME280;43627;42.728;23.256;2022-11-02T07:00:13;95677.56;;;11.50;89.94
57801;BME280;43627;42.728;23.256;2022-11-02T07:03:03;95687.00;;;11.58;91.30
57801;BME280;43627;42.728;23.256;2022-11-02T07:05:32;95685.63;;;11.62;91.66
57801;BME280;43627;42.728;23.256;2022-11-02T07:07:58;95679.59;;;11.67;89.45
57801;BME280;43627;42.728;23.256;2022-11-02T07:10:26;95670.97;;;11.78;88.56
57801;BME280;43627;42.728;23.256;2022-11-02T07:12:53;95676.94;;;11.86;88.34
57801;BME280;43627;42.728;23.256;2022-11-02T07:15:21;95677.34;;;11.84;88.70
57801;BME280;43627;42.728;23.256;2022-11-02T07:17:48;95680.75;;;12.07;87.30
57801;BME280;43627;42.728;23.256;2022-11-02T07:20:15;95676.97;;;12.22;86.07
57801;BME280;43627;42.728;23.256;2022-11-02T07:22:57;95678.78;;;12.25;85.04
57801;BME280;43627;42.728;23.256;2022-11-02T07:25:25;95666.81;;;12.41;84.24
57801;BME280;43627;42.728;23.256;2022-11-02T07:27:53;95675.75;;;12.51;83.32
57801;BME280;43627;42.728;23.256;2022-11-02T07:30:20;95685.16;;;12.68;83.00
57801;BME280;43627;42.728;23.256;2022-11-02T07:32:47;95667.22;;;12.67;82.43
57801;BME280;43627;42.728;23.256;2022-11-02T07:35:15;95675.25;;;12.89;81.28
57801;BME280;43627;42.728;23.256;2022-11-02T07:37:43;95673.06;;;13.02;78.96
57801;BME280;43627;42.728;23.256;2022-11-02T07:40:11;95662.69;;;13.15;77.51
57801;BME280;43627;42.728;23.256;2022-11-02T07:42:45;95667.22;;;13.37;76.35
57801;BME280;43627;42.728;23.256;2022-11-02T07:45:12;95661.94;;;13.57;76.56
57801;BME280;43627;42.728;23.256;2022-11-02T07:47:45;95668.09;;;13.76;72.74
57801;BME280;43627;42.728;23.256;2022-11-02T07:50:14;95674.09;;;13.89;73.21
57801;BME280;43627;42.728;23.256;2022-11-02T07:52:48;95660.19;;;14.17;70.59
57801;BME280;43627;42.728;23.256;2022-11-02T07:55:20;95662.06;;;14.35;68.06
57801;BME280;43627;42.728;23.256;2022-11-02T07:57:57;95662.81;;;14.35;67.03
57801;BME280;43627;42.728;23.256;2022-11-02T08:00:26;95650.47;;;14.54;67.93
57801;BME280;43627;42.728;23.256;2022-11-02T08:02:56;95656.19;;;14.95;66.62
57801;BME280;43627;42.728;23.256;2022-11-02T08:05:24;95649.84;;;15.19;64.05
57801;BME280;43627;42.728;23.256;2022-11-02T08:08:02;95654.44;;;15.42;62.59
57801;BME280;43627;42.728;23.256;2022-11-02T08:10:31;95643.97;;;15.61;60.77
57801;BME280;43627;42.728;23.256;2022-11-02T08:13:04;95643.09;;;15.69;60.34
57801;BME280;43627;42.728;23.256;2022-11-02T08:15:31;95647.19;;;15.94;60.33
57801;BME280;43627;42.728;23.256;2022-11-02T08:18:08;95641.88;;;15.91;58.48
57801;BME280;43627;42.728;23.256;2022-11-02T08:20:37;95641.47;;;15.98;57.61
57801;BME280;43627;42.728;23.256;2022-11-02T08:23:04;95631.94;;;16.14;57.24
57801;BME280;43627;42.728;23.256;2022-11-02T08:25:33;95632.25;;;16.42;55.43
57801;BME280;43627;42.728;23.256;2022-11-02T08:28:00;95630.47;;;16.65;54.30
57801;BME280;43627;42.728;23.256;2022-11-02T08:30:28;95626.44;;;16.86;53.64
57801;BME280;43627;42.728;23.256;2022-11-02T08:33:02;95618.59;;;16.53;54.01
57801;BME280;43627;42.728;23.256;2022-11-02T08:35:29;95619.28;;;16.68;53.54
57801;BME280;43627;42.728;23.256;2022-11-02T08:37:56;95613.13;;;16.79;53.38
57801;BME280;43627;42.728;23.256;2022-11-02T08:40:25;95618.13;;;17.06;52.59
57801;BME280;43627;42.728;23.256;2022-11-02T08:42:59;95616.72;;;17.17;52.42
57801;BME280;43627;42.728;23.256;2022-11-02T08:45:28;95618.38;;;17.40;51.45
57801;BME280;43627;42.728;23.256;2022-11-02T08:48:15;95612.97;;;17.57;50.92
57801;BME280;43627;42.728;23.256;2022-11-02T08:50:42;95610.66;;;17.87;50.61
57801;BME280;43627;42.728;23.256;2022-11-02T08:53:09;95618.50;;;18.05;49.84
57801;BME280;43627;42.728;23.256;2022-11-02T08:55:35;95607.97;;;18.09;49.62
57801;BME280;43627;42.728;23.256;2022-11-02T08:58:02;95608.28;;;18.22;48.91
57801;BME280;43627;42.728;23.256;2022-11-02T09:00:30;95612.59;;;18.29;48.56
57801;BME280;43627;42.728;23.256;2022-11-02T09:03:12;95599.25;;;18.22;48.66
57801;BME280;43627;42.728;23.256;2022-11-02T09:05:41;95601.50;;;18.23;48.63
57801;BME280;43627;42.728;23.256;2022-11-02T09:08:11;95608.63;;;18.52;48.31
57801;BME280;43627;42.728;23.256;2022-11-02T09:10:39;95596.78;;;18.46;48.22
57801;BME280;43627;42.728;23.256;2022-11-02T09:13:07;95592.63;;;18.68;47.80
57801;BME280;43627;42.728;23.256;2022-11-02T09:15:35;95592.63;;;18.73;47.86
57801;BME280;43627;42.728;23.256;2022-11-02T09:18:06;95590.38;;;18.89;47.58
57801;BME280;43627;42.728;23.256;2022-11-02T09:20:33;95586.59;;;19.03;47.05
57801;BME280;43627;42.728;23.256;2022-11-02T09:23:00;95585.59;;;19.06;46.97
57801;BME280;43627;42.728;23.256;2022-11-02T09:25:27;95587.31;;;19.54;46.21
57801;BME280;43627;42.728;23.256;2022-11-02T09:27:55;95584.03;;;19.55;45.49
57801;BME280;43627;42.728;23.256;2022-11-02T09:30:23;95578.50;;;19.66;45.35
57801;BME280;43627;42.728;23.256;2022-11-02T09:32:58;95571.69;;;19.73;45.09
57801;BME280;43627;42.728;23.256;2022-11-02T09:35:27;95572.19;;;19.77;44.94
57801;BME280;43627;42.728;23.256;2022-11-02T09:37:54;95565.84;;;19.88;44.53
57801;BME280;43627;42.728;23.256;2022-11-02T09:40:27;95567.13;;;19.87;44.80
57801;BME280;43627;42.728;23.256;2022-11-02T09:45:57;95559.19;;;20.19;43.79
57801;BME280;43627;42.728;23.256;2022-11-02T09:48:30;95542.00;;;20.32;43.50
57801;BME280;43627;42.728;23.256;2022-11-02T09:51:12;95545.91;;;20.59;43.24
57801;BME280;43627;42.728;23.256;2022-11-02T09:56:13;95529.28;;;21.19;42.11
57801;BME280;43627;42.728;23.256;2022-11-02T09:58:44;95530.69;;;21.31;41.55
57801;BME280;43627;42.728;23.256;2022-11-02T10:07:20;95525.53;;;21.89;40.51
57801;BME280;43627;42.728;23.256;2022-11-02T10:09:52;95519.31;;;22.02;40.25
57801;BME280;43627;42.728;23.256;2022-11-02T10:17:39;95505.53;;;22.66;38.89
57801;BME280;43627;42.728;23.256;2022-11-02T10:20:18;95508.72;;;22.89;38.48
57801;BME280;43627;42.728;23.256;2022-11-02T10:22:48;95505.69;;;23.06;37.99
57801;BME280;43627;42.728;23.256;2022-11-02T10:25:15;95492.84;;;23.29;37.93
57801;BME280;43627;42.728;23.256;2022-11-02T10:27:43;95494.09;;;23.60;36.96
57801;BME280;43627;42.728;23.256;2022-11-02T10:30:17;95491.41;;;23.81;36.00
57801;BME280;43627;42.728;23.256;2022-11-02T10:32:47;95501.75;;;23.94;36.23
57801;BME280;43627;42.728;23.256;2022-11-02T10:35:39;95492.41;;;24.18;35.20
57801;BME280;43627;42.728;23.256;2022-11-02T10:51:59;95457.22;;;24.83;33.96
57801;BME280;43627;42.728;23.256;2022-11-02T10:54:25;95443.31;;;24.70;34.64
57801;BME280;43627;42.728;23.256;2022-11-02T10:57:04;95460.81;;;24.49;32.71
57801;BME280;43627;42.728;23.256;2022-11-02T10:59:34;95448.34;;;24.50;32.64
57801;BME280;43627;42.728;23.256;2022-11-02T11:04:30;95443.53;;;24.72;32.03
57801;BME280;43627;42.728;23.256;2022-11-02T11:07:03;95437.34;;;24.87;31.72
57801;BME280;43627;42.728;23.256;2022-11-02T11:09:53;95446.59;;;25.02;30.97
57801;BME280;43627;42.728;23.256;2022-11-02T11:12:37;95433.59;;;25.05;30.00
57801;BME280;43627;42.728;23.256;2022-11-02T11:15:05;95427.28;;;24.84;30.47
57801;BME280;43627;42.728;23.256;2022-11-02T11:17:52;95430.59;;;24.82;29.38
57801;BME280;43627;42.728;23.256;2022-11-02T11:20:40;95428.16;;;24.78;29.43
57801;BME280;43627;42.728;23.256;2022-11-02T11:23:20;95420.78;;;24.89;29.15
57801;BME280;43627;42.728;23.256;2022-11-02T11:25:57;95420.44;;;25.13;29.16
57801;BME280;43627;42.728;23.256;2022-11-02T11:31:20;95414.56;;;25.24;28.20
57801;BME280;43627;42.728;23.256;2022-11-02T11:33:51;95411.53;;;25.15;27.50
57801;BME280;43627;42.728;23.256;2022-11-02T11:36:27;95411.59;;;25.30;26.95
57801;BME280;43627;42.728;23.256;2022-11-02T11:38:59;95401.09;;;25.44;26.51
57801;BME280;43627;42.728;23.256;2022-11-02T11:41:28;95393.34;;;25.21;26.67
57801;BME280;43627;42.728;23.256;2022-11-02T11:43:55;95394.66;;;25.28;26.41
57801;BME280;43627;42.728;23.256;2022-11-02T11:46:22;95395.47;;;25.08;26.38
57801;BME280;43627;42.728;23.256;2022-11-02T11:49:04;95394.19;;;25.09;26.09
57801;BME280;43627;42.728;23.256;2022-11-02T11:51:32;95390.00;;;25.23;26.75
57801;BME280;43627;42.728;23.256;2022-11-02T11:54:25;95385.03;;;25.37;26.43
57801;BME280;43627;42.728;23.256;2022-11-02T11:56:56;95374.00;;;25.23;26.84
57801;BME280;43627;42.728;23.256;2022-11-02T12:02:22;95381.88;;;25.04;27.02
57801;BME280;43627;42.728;23.256;2022-11-02T12:04:51;95385.41;;;25.04;26.66
57801;BME280;43627;42.728;23.256;2022-11-02T12:08:00;95377.34;;;25.01;27.20
57801;BME280;43627;42.728;23.256;2022-11-02T12:24:19;95366.69;;;25.13;27.05
57801;BME280;43627;42.728;23.256;2022-11-02T12:29:49;95350.13;;;24.86;27.63
57801;BME280;43627;42.728;23.256;2022-11-02T12:40:49;95317.03;;;24.90;27.33
57801;BME280;43627;42.728;23.256;2022-11-02T12:51:29;95322.25;;;25.15;27.06
57801;BME280;43627;42.728;23.256;2022-11-02T12:54:01;95334.28;;;25.10;27.24
57801;BME280;43627;42.728;23.256;2022-11-02T12:56:45;95335.50;;;25.01;27.32
57801;BME280;43627;42.728;23.256;2022-11-02T12:59:37;95330.44;;;24.92;27.37
57801;BME280;43627;42.728;23.256;2022-11-02T13:02:08;95340.06;;;24.83;27.38
57801;BME280;43627;42.728;23.256;2022-11-02T13:04:47;95338.28;;;24.93;27.53
57801;BME280;43627;42.728;23.256;2022-11-02T13:07:19;95327.81;;;24.86;27.68
57801;BME280;43627;42.728;23.256;2022-11-02T13:09:52;95324.84;;;24.92;27.52
57801;BME280;43627;42.728;23.256;2022-11-02T13:12:23;95332.69;;;24.93;27.44
57801;BME280;43627;42.728;23.256;2022-11-02T13:14:53;95338.00;;;25.04;27.84
57801;BME280;43627;42.728;23.256;2022-11-02T13:17:26;95327.50;;;24.97;27.67
57801;BME280;43627;42.728;23.256;2022-11-02T13:20:03;95334.47;;;25.04;27.52
57801;BME280;43627;42.728;23.256;2022-11-02T13:22:34;95327.44;;;25.18;27.33
57801;BME280;43627;42.728;23.256;2022-11-02T13:25:15;95326.41;;;25.00;28.04
57801;BME280;43627;42.728;23.256;2022-11-02T13:27:50;95331.72;;;25.12;27.85
57801;BME280;43627;42.728;23.256;2022-11-02T13:30:18;95327.78;;;25.07;27.49
57801;BME280;43627;42.728;23.256;2022-11-02T13:35:37;95330.06;;;24.88;27.78
57801;BME280;43627;42.728;23.256;2022-11-02T13:41:06;95326.16;;;24.91;27.93
57801;BME280;43627;42.728;23.256;2022-11-02T13:51:43;95312.94;;;24.34;28.41
57801;BME280;43627;42.728;23.256;2022-11-02T13:54:16;95307.63;;;24.23;28.22
57801;BME280;43627;42.728;23.256;2022-11-02T13:56:46;95319.44;;;24.16;28.85
57801;BME280;43627;42.728;23.256;2022-11-02T13:59:19;95312.31;;;24.28;28.72
57801;BME280;43627;42.728;23.256;2022-11-02T14:01:47;95310.75;;;24.19;28.46
57801;BME280;43627;42.728;23.256;2022-11-02T14:04:17;95322.50;;;24.05;28.66
57801;BME280;43627;42.728;23.256;2022-11-02T14:06:55;95318.38;;;23.98;29.30
57801;BME280;43627;42.728;23.256;2022-11-02T14:14:44;95326.47;;;23.75;30.06
57801;BME280;43627;42.728;23.256;2022-11-02T14:17:17;95315.59;;;23.64;30.13
57801;BME280;43627;42.728;23.256;2022-11-02T14:22:15;95320.31;;;23.56;30.47
57801;BME280;43627;42.728;23.256;2022-11-02T14:35:09;95318.28;;;23.56;30.59
57801;BME280;43627;42.728;23.256;2022-11-02T14:49:03;95339.19;;;22.57;31.89
57801;BME280;43627;42.728;23.256;2022-11-02T14:51:32;95333.91;;;22.40;31.93
57801;BME280;43627;42.728;23.256;2022-11-02T14:54:16;95338.59;;;22.19;32.55
57801;BME280;43627;42.728;23.256;2022-11-02T14:57:05;95338.16;;;21.96;32.60
57801;BME280;43627;42.728;23.256;2022-11-02T14:59:36;95327.91;;;21.72;33.11
57801;BME280;43627;42.728;23.256;2022-11-02T15:02:28;95325.22;;;21.48;33.29
57801;BME280;43627;42.728;23.256;2022-11-02T15:04:58;95343.75;;;21.39;33.51
57801;BME280;43627;42.728;23.256;2022-11-02T15:07:56;95338.13;;;21.26;33.64
57801;BME280;43627;42.728;23.256;2022-11-02T15:18:31;95347.19;;;21.02;33.65
57801;BME280;43627;42.728;23.256;2022-11-02T15:26:44;95347.50;;;20.74;34.16
57801;BME280;43627;42.728;23.256;2022-11-02T15:29:26;95346.88;;;20.63;34.52
57801;BME280;43627;42.728;23.256;2022-11-02T15:31:57;95355.81;;;20.50;34.98
57801;BME280;43627;42.728;23.256;2022-11-02T15:34:39;95344.53;;;20.12;35.65
57801;BME280;43627;42.728;23.256;2022-11-02T15:37:07;95354.97;;;20.01;36.13
57801;BME280;43627;42.728;23.256;2022-11-02T15:39:38;95349.75;;;19.91;36.35
57801;BME280;43627;42.728;23.256;2022-11-02T15:45:17;95364.06;;;19.49;37.51
57801;BME280;43627;42.728;23.256;2022-11-02T15:54:17;95366.25;;;19.03;38.61